createdAt,value
2022-12-25T00:02:04.720Z,62.18
2022-12-25T00:08:50.460Z,62.29
2022-12-25T00:15:41.950Z,62.35
2022-12-25T00:22:27.448Z,62.26
2022-12-25T00:29:15.729Z,62.23
2022-12-25T00:36:06.764Z,62.14
2022-12-25T00:42:54.649Z,62.18
2022-12-25T00:49:40.685Z,62.23
2022-12-25T00:56:28.906Z,62.27
2022-12-25T01:03:14.362Z,62.27
2022-12-25T01:10:12.340Z,62.39
2022-12-25T01:17:00.294Z,62.29
2022-12-25T01:23:47.482Z,61.81
2022-12-25T01:30:32.906Z,62.07
2022-12-25T01:37:20.912Z,62.13
2022-12-25T01:44:10.712Z,62.40
2022-12-25T01:51:00.122Z,62.29
2022-12-25T01:57:49.973Z,62.43
2022-12-25T02:04:41.243Z,62.52
2022-12-25T02:11:39.177Z,62.18
2022-12-25T02:18:39.334Z,62.47
2022-12-25T02:25:43.840Z,62.24
2022-12-25T02:32:35.581Z,62.36
2022-12-25T02:39:40.306Z,62.29
2022-12-25T02:46:40.055Z,62.18
2022-12-25T02:53:40.674Z,62.26
2022-12-25T03:00:38.830Z,62.32
2022-12-25T03:07:26.817Z,62.13
2022-12-25T03:14:27.288Z,61.98
2022-12-25T03:21:25.515Z,61.51
2022-12-25T03:28:10.999Z,61.36
2022-12-25T03:35:18.653Z,61.13
2022-12-25T03:42:21.103Z,61.05
2022-12-25T04:02:43.360Z,60.18
2022-12-25T04:09:41.433Z,60.14
2022-12-25T04:16:39.446Z,60.11
2022-12-25T04:23:39.903Z,60.22
2022-12-25T04:30:37.808Z,59.89
2022-12-25T04:37:23.246Z,60.02
2022-12-25T04:44:12.972Z,59.76
2022-12-25T04:50:58.406Z,59.90
2022-12-25T04:57:44.042Z,59.44
2022-12-25T05:04:32.099Z,59.23
2022-12-25T05:11:19.519Z,58.94
2022-12-25T05:18:04.910Z,59.16
2022-12-25T05:24:52.920Z,58.84
2022-12-25T05:31:38.490Z,59.03
2022-12-25T05:38:24.007Z,58.89
2022-12-25T05:45:14.068Z,58.88
2022-12-25T05:51:59.441Z,58.65
2022-12-25T05:58:45.324Z,58.50
2022-12-25T06:05:34.011Z,58.46
2022-12-25T06:12:19.412Z,58.74
2022-12-25T06:19:04.770Z,58.44
2022-12-25T06:25:52.770Z,58.62
2022-12-25T06:32:38.218Z,58.19
2022-12-25T06:39:25.604Z,57.96
2022-12-25T06:46:16.006Z,58.12
2022-12-25T06:53:02.996Z,57.58
2022-12-25T06:59:54.616Z,57.49
2022-12-25T07:06:43.243Z,57.61
2022-12-25T07:13:28.790Z,57.21
2022-12-25T07:20:14.600Z,57.39
2022-12-25T07:27:02.598Z,57.41
2022-12-25T07:33:48.086Z,57.38
2022-12-25T07:40:33.553Z,57.48
2022-12-25T07:47:21.476Z,57.41
2022-12-25T07:54:07.122Z,57.38
2022-12-25T08:00:52.568Z,57.30
2022-12-25T08:07:40.662Z,57.04
2022-12-25T08:14:26.008Z,57.32
2022-12-25T08:21:15.039Z,57.37
2022-12-25T08:28:03.956Z,57.33
2022-12-25T08:34:49.650Z,57.19
2022-12-25T08:41:36.500Z,57.03
2022-12-25T08:48:24.828Z,57.40
2022-12-25T08:55:11.375Z,57.57
2022-12-25T09:01:56.923Z,57.19
2022-12-25T09:08:49.149Z,57.28
2022-12-25T09:15:35.274Z,57.47
2022-12-25T09:22:20.635Z,57.17
2022-12-25T09:29:08.708Z,57.17
2022-12-25T09:35:59.283Z,57.24
2022-12-25T09:42:46.032Z,57.11
2022-12-25T09:49:42.017Z,57.45
2022-12-25T09:56:28.876Z,57.10
2022-12-25T10:03:33.127Z,57.01
2022-12-25T10:10:44.760Z,57.10
2022-12-25T10:17:43.474Z,57.05
2022-12-25T10:24:38.679Z,57.31
2022-12-25T10:31:30.017Z,57.21
2022-12-25T10:38:19.693Z,56.63
2022-12-25T10:45:08.050Z,56.78
2022-12-25T10:51:56.183Z,56.67
2022-12-25T10:58:41.581Z,56.91
2022-12-25T11:05:32.037Z,56.97
2022-12-25T11:12:27.160Z,56.83
2022-12-25T11:19:29.507Z,56.94
2022-12-25T11:26:16.239Z,56.84
2022-12-25T11:33:07.317Z,56.39
2022-12-25T11:39:52.666Z,56.86
2022-12-25T11:46:45.924Z,57.09
2022-12-25T11:53:41.603Z,56.80
2022-12-25T12:00:27.430Z,56.65
2022-12-25T12:07:22.069Z,56.62
2022-12-25T12:14:30.551Z,56.98
2022-12-25T12:21:26.778Z,56.72
2022-12-25T12:28:23.294Z,56.80
2022-12-25T12:35:20.307Z,56.90
2022-12-25T12:42:17.094Z,57.20
2022-12-25T12:49:12.664Z,56.61
2022-12-25T12:56:11.669Z,56.93
2022-12-25T13:03:44.003Z,56.99
2022-12-25T13:10:35.832Z,56.92
2022-12-25T13:17:26.960Z,57.35
2022-12-25T13:24:24.904Z,57.50
2022-12-25T13:31:18.562Z,57.53
2022-12-25T13:38:06.768Z,57.89
2022-12-25T13:44:55.993Z,57.41
2022-12-25T13:51:41.364Z,57.77
2022-12-25T13:58:33.345Z,57.66
2022-12-25T14:05:37.881Z,57.61
2022-12-25T14:12:28.536Z,57.80
2022-12-25T14:19:29.962Z,57.97
2022-12-25T14:26:19.784Z,57.97
2022-12-25T14:33:07.665Z,57.94
2022-12-25T14:40:03.471Z,58.29
2022-12-25T14:46:49.198Z,58.07
2022-12-25T14:53:41.151Z,58.59
2022-12-25T15:00:35.919Z,58.51
2022-12-25T15:07:33.967Z,58.58
2022-12-25T15:14:19.398Z,58.68
2022-12-25T15:21:07.973Z,58.76
2022-12-25T15:27:53.418Z,58.49
2022-12-25T15:34:38.846Z,58.64
2022-12-25T15:41:43.134Z,58.45
2022-12-25T15:48:29.274Z,58.57
2022-12-25T15:55:15.641Z,58.56
2022-12-25T16:02:06.699Z,58.58
2022-12-25T16:08:52.327Z,58.56
2022-12-25T16:15:38.100Z,58.82
2022-12-25T16:22:28.906Z,59.03
2022-12-25T16:29:14.841Z,58.90
2022-12-25T16:36:00.338Z,58.65
2022-12-25T16:42:49.331Z,58.51
2022-12-25T16:49:34.889Z,58.73
2022-12-25T16:56:25.444Z,58.86
2022-12-25T17:03:13.609Z,59.11
2022-12-25T17:09:59.748Z,58.89
2022-12-25T17:16:45.254Z,59.07
2022-12-25T17:23:33.186Z,59.19
2022-12-25T17:30:19.399Z,59.30
2022-12-25T17:37:04.903Z,59.41
2022-12-25T17:43:52.917Z,59.52
2022-12-25T17:50:41.415Z,59.78
2022-12-25T17:57:27.470Z,59.82
2022-12-25T18:04:16.331Z,59.96
2022-12-25T18:11:07.210Z,60.17
2022-12-25T18:17:52.548Z,60.20
2022-12-25T18:24:41.316Z,60.42
2022-12-25T18:31:30.587Z,60.41
2022-12-25T18:38:17.109Z,60.23
2022-12-25T18:45:06.116Z,60.44
2022-12-25T18:51:52.400Z,60.38
2022-12-25T18:58:39.222Z,60.25
2022-12-25T19:05:27.299Z,60.50
2022-12-25T19:12:12.695Z,60.38
2022-12-25T19:18:59.167Z,60.22
2022-12-25T19:25:47.692Z,60.46
2022-12-25T19:32:33.099Z,60.32
2022-12-25T19:39:18.788Z,60.41
2022-12-25T19:46:13.475Z,60.65
2022-12-25T19:52:59.423Z,60.18
2022-12-25T19:59:45.076Z,60.33
2022-12-25T20:06:35.461Z,60.30
2022-12-25T20:13:21.609Z,60.17
2022-12-25T20:20:07.748Z,60.25
2022-12-25T20:26:59.151Z,60.37
2022-12-25T20:33:44.985Z,60.18
2022-12-25T20:40:30.460Z,60.26
2022-12-25T20:47:18.438Z,60.29
2022-12-25T20:54:03.856Z,60.29
2022-12-25T21:00:49.333Z,60.01
2022-12-25T21:07:37.359Z,60.12
2022-12-25T21:14:22.756Z,59.89
2022-12-25T21:21:09.938Z,60.01
2022-12-25T21:27:58.028Z,59.93
2022-12-25T21:34:43.556Z,59.92
2022-12-25T21:41:30.570Z,59.57
2022-12-25T21:48:18.676Z,59.66
2022-12-25T21:55:06.222Z,59.21
2022-12-25T22:01:53.772Z,59.23
2022-12-25T22:08:41.930Z,58.94
2022-12-25T22:15:39.736Z,58.86
2022-12-25T22:22:28.672Z,58.91
2022-12-25T22:29:16.878Z,59.01
2022-12-25T22:36:05.379Z,58.69
2022-12-25T22:42:51.113Z,58.74
2022-12-25T22:49:39.425Z,58.97
2022-12-25T22:56:24.899Z,59.08
2022-12-25T23:03:10.334Z,59.12
2022-12-25T23:09:58.927Z,58.93
2022-12-25T23:16:45.087Z,58.87
2022-12-25T23:23:42.953Z,58.60
2022-12-25T23:30:30.975Z,58.65
2022-12-25T23:37:16.772Z,58.86
2022-12-25T23:44:02.378Z,58.60
2022-12-25T23:50:50.488Z,58.65
2022-12-25T23:57:35.857Z,58.53
